Time;durP1;ratioP1;P1;durP2;ratioP2;P2;SDS_P1;SDS_P2;PMS_P1;PMS_P2;Temp;Humidity;BMP_temperature;BMP_pressure;BME280_temperature;BME280_humidity;BME280_pressure;Samples;Min_cycle;Max_cycle;Signal;HPM_P1;HPM_P2
2023/03/11 00:00:34;;;;;;;;;;;;;;;-144.70;100.00;64190.91;4789093;30;19970;-49
2023/03/11 00:03:00;;;;;;;;;;;;;;;-144.70;100.00;64190.91;4789146;30;19931;-46
2023/03/11 00:05:28;;;;;;;;;;;;;;;-144.70;100.00;64190.91;4789537;30;19917;-48
2023/03/11 00:07:54;;;;;;;;;;;;;;;-144.70;100.00;64190.91;4772819;30;19917;-49
2023/03/11 00:10:25;;;;;;;;;;;;;;;-144.70;100.00;64190.91;4789945;30;19925;-46
2023/03/11 00:12:51;;;;;;;;;;;;;;;-144.70;100.00;64190.91;4788972;30;19941;-47
2023/03/11 00:15:17;;;;;;;;;;;;;;;-144.70;100.00;64190.91;4789418;30;19926;-50
2023/03/11 00:17:43;;;;;;;;;;;;;;;-144.70;100.00;64190.91;4789393;30;19947;-49
2023/03/11 00:20:15;;;;;;;;;;;;;;;-144.70;100.00;64190.91;4789020;30;20183;-48
2023/03/11 00:22:41;;;;;;;;;;;;;;;-144.70;100.00;64190.91;4789017;30;19921;-48
2023/03/11 00:25:08;;;;;;;;;;;;;;;-144.70;100.00;64190.91;4787239;30;20208;-48
2023/03/11 00:27:36;;;;;;;;;;;;;;;-144.70;100.00;64190.91;4770571;30;19937;-49
2023/03/11 00:30:02;;;;;;;;;;;;;;;-144.70;100.00;64190.91;4785265;30;19924;-48
2023/03/11 00:32:28;;;;;;;;;;;;;;;-144.70;100.00;64190.91;4788993;30;19928;-48
2023/03/11 00:34:53;;;;;;;;;;;;;;;-144.70;100.00;64190.91;4788504;30;19918;-50
2023/03/11 00:37:19;;;;;;;;;;;;;;;-144.70;100.00;64190.91;4789172;30;19925;-46
2023/03/11 00:39:45;;;;;;;;;;;;;;;-144.70;100.00;64190.91;4788532;30;19918;-48
2023/03/11 00:42:11;;;;;;;;;;;;;;;-144.70;100.00;64190.91;4788545;30;19921;-48
2023/03/11 00:44:37;;;;;;;;;;;;;;;-144.70;100.00;64190.91;4788401;30;19932;-48
2023/03/11 00:47:03;;;;;;;;;;;;;;;-144.70;100.00;64190.91;4788879;30;19979;-50
2023/03/11 00:49:28;;;;;;;;;;;;;;;-144.70;100.00;64190.91;4788368;30;19971;-50
2023/03/11 00:51:54;;;;;;;;;;;;;;;-144.70;100.00;64190.91;4788382;30;19948;-46
2023/03/11 00:54:20;;;;;;;;;;;;;;;-144.70;100.00;64190.91;4788294;30;19921;-50
2023/03/11 00:56:46;;;;;;;;;;;;;;;-144.70;100.00;64190.91;4788673;30;19959;-46
2023/03/11 00:59:12;;;;;;;;;;;;;;;-144.70;100.00;64190.91;4788686;30;19928;-46
2023/03/11 01:01:38;;;;;;;;;;;;;;;-144.70;100.00;64190.91;4787973;30;19922;-46
2023/03/11 01:04:04;;;;;;;;;;;;;;;-144.70;100.00;64190.91;4788449;30;20012;-49
2023/03/11 01:06:29;;;;;;;;;;;;;;;-144.70;100.00;64190.91;4787692;29;19925;-49
2023/03/11 01:08:55;;;;;;;;;;;;;;;-144.70;100.00;64190.91;4788281;30;19917;-47
2023/03/11 01:11:21;;;;;;;;;;;;;;;-144.70;100.00;64190.91;4787782;30;19921;-48
2023/03/11 01:13:47;;;;;;;;;;;;;;;-144.70;100.00;64190.91;4788458;30;20445;-47
2023/03/11 01:16:13;;;;;;;;;;;;;;;-144.70;100.00;64190.91;4788190;30;20499;-51
2023/03/11 01:18:39;;;;;;;;;;;;;;;-144.70;100.00;64190.91;4788084;30;19928;-50
2023/03/11 01:21:05;;;;;;;;;;;;;;;-144.70;100.00;64190.91;4787890;30;19996;-50
2023/03/11 01:23:31;;;;;;;;;;;;;;;-144.70;100.00;64190.91;4788167;30;20397;-49
2023/03/11 01:25:57;;;;;;;;;;;;;;;-144.70;100.00;64190.91;4784021;30;19928;-48
2023/03/11 01:28:23;;;;;;;;;;;;;;;-144.70;100.00;64190.91;4788191;30;19918;-47
2023/03/11 01:30:49;;;;;;;;;;;;;;;-144.70;100.00;64190.91;4787550;30;19917;-50
2023/03/11 01:33:16;;;;;;;;;;;;;;;-144.70;100.00;64190.91;4788185;30;19924;-50
2023/03/11 01:35:42;;;;;;;;;;;;;;;-144.70;100.00;64190.91;4793516;24;19936;-50
2023/03/11 01:38:08;;;;;;;;;;;;;;;-144.70;100.00;64190.91;4787908;30;19917;-49
2023/03/11 01:40:35;;;;;;;;;;;;;;;-144.70;100.00;64190.91;4787118;30;20000;-49
2023/03/11 01:43:02;;;;;;;;;;;;;;;-144.70;100.00;64190.91;4787624;30;19966;-51
2023/03/11 01:45:28;;;;;;;;;;;;;;;-144.70;100.00;64190.91;4787896;30;20015;-50
2023/03/11 01:47:54;;;;;;;;;;;;;;;-144.70;100.00;64190.91;4787625;30;19929;-50
2023/03/11 01:50:20;;;;;;;;;;;;;;;-144.70;100.00;64190.91;4787695;30;19920;-49
2023/03/11 01:52:46;;;;;;;;;;;;;;;-144.70;100.00;64190.91;4787425;30;19932;-50
2023/03/11 01:55:13;;;;;;;;;;;;;;;-144.70;100.00;64190.91;4786269;30;19925;-49
2023/03/11 01:57:40;;;;;;;;;;;;;;;-144.70;100.00;64190.91;4787725;30;19956;-49
2023/03/11 02:00:09;;;;;;;;;;;;;;;-144.70;100.00;64190.91;4787242;30;19982;-51
2023/03/11 02:02:43;;;;;;;;;;;;;;;-144.70;100.00;64190.91;4781352;30;20420;-49
2023/03/11 02:05:10;;;;;;;;;;;;;;;-144.70;100.00;64190.91;4777344;29;19922;-46
2023/03/11 02:07:37;;;;;;;;;;;;;;;-144.70;100.00;64190.91;4777421;30;19922;-48
2023/03/11 02:10:06;;;;;;;;;;;;;;;-144.70;100.00;64190.91;4771109;30;19921;-47
2023/03/11 02:12:34;;;;;;;;;;;;;;;-144.70;100.00;64190.91;4783004;30;19976;-49
2023/03/11 02:15:00;;;;;;;;;;;;;;;-144.70;100.00;64190.91;4769747;30;19926;-52
2023/03/11 02:17:26;;;;;;;;;;;;;;;-144.70;100.00;64190.91;4770882;30;19965;-50
2023/03/11 02:19:55;;;;;;;;;;;;;;;-144.70;100.00;64190.91;4770124;30;19956;-46
2023/03/11 02:22:21;;;;;;;;;;;;;;;-144.70;100.00;64190.91;4757215;30;20012;-53
2023/03/11 02:24:53;;;;;;;;;;;;;;;-144.70;100.00;64190.91;4751724;30;19957;-47
2023/03/11 02:27:20;;;;;;;;;;;;;;;-144.70;100.00;64190.91;4751736;30;20374;-48
2023/03/11 02:29:48;;;;;;;;;;;;;;;-144.70;100.00;64190.91;4751671;30;20370;-50
2023/03/11 02:32:15;;;;;;;;;;;;;;;-144.70;100.00;64190.91;4758146;30;19947;-50
2023/03/11 02:34:41;;;;;;;;;;;;;;;-144.70;100.00;64190.91;4770601;30;19952;-47
2023/03/11 02:37:08;;;;;;;;;;;;;;;-144.70;100.00;64190.91;4752911;30;20449;-50
2023/03/11 02:39:44;;;;;;;;;;;;;;;-144.70;100.00;64190.91;4754748;30;19961;-47
2023/03/11 02:42:27;;;;;;;;;;;;;;;-144.70;100.00;64190.91;4766490;30;20369;-50
2023/03/11 02:44:57;;;;;;;;;;;;;;;-144.70;100.00;64190.91;4779401;30;20372;-49
2023/03/11 02:47:23;;;;;;;;;;;;;;;-144.70;100.00;64190.91;4769179;30;19928;-48
2023/03/11 02:49:49;;;;;;;;;;;;;;;-144.70;100.00;64190.91;4755537;30;20001;-50
2023/03/11 02:52:16;;;;;;;;;;;;;;;-144.70;100.00;64190.91;4754402;30;19928;-48
2023/03/11 02:54:41;;;;;;;;;;;;;;;-144.70;100.00;64190.91;4754749;30;19954;-50
2023/03/11 02:57:07;;;;;;;;;;;;;;;-144.70;100.00;64190.91;4757876;30;20570;-49
2023/03/11 02:59:33;;;;;;;;;;;;;;;-144.70;100.00;64190.91;4762518;30;20381;-49
2023/03/11 03:01:59;;;;;;;;;;;;;;;-144.70;100.00;64190.91;4778132;29;19925;-47
2023/03/11 03:04:25;;;;;;;;;;;;;;;-144.70;100.00;64190.91;4758225;30;19968;-49
2023/03/11 03:06:51;;;;;;;;;;;;;;;-144.70;100.00;64190.91;4756112;30;19918;-47
2023/03/11 03:09:17;;;;;;;;;;;;;;;-144.70;100.00;64190.91;4769086;30;19922;-48
2023/03/11 03:11:42;;;;;;;;;;;;;;;-144.70;100.00;64190.91;4768591;30;19967;-46
2023/03/11 03:14:08;;;;;;;;;;;;;;;-144.70;100.00;64190.91;4769016;30;19918;-49
2023/03/11 03:16:34;;;;;;;;;;;;;;;-144.70;100.00;64190.91;4757442;30;19924;-49
2023/03/11 03:19:00;;;;;;;;;;;;;;;-144.70;100.00;64190.91;4755789;30;19980;-49
2023/03/11 03:21:26;;;;;;;;;;;;;;;-144.70;100.00;64190.91;4768599;30;19917;-46
2023/03/11 03:23:52;;;;;;;;;;;;;;;-144.70;100.00;64190.91;4768768;30;19924;-48
2023/03/11 03:26:17;;;;;;;;;;;;;;;-144.70;100.00;64190.91;4768857;30;19957;-48
2023/03/11 03:28:43;;;;;;;;;;;;;;;-144.70;100.00;64190.91;4768855;30;19922;-48
2023/03/11 03:31:10;;;;;;;;;;;;;;;-144.70;100.00;64190.91;4782790;30;19922;-46
2023/03/11 03:33:36;;;;;;;;;;;;;;;-144.70;100.00;64190.91;4786699;30;19918;-48
2023/03/11 03:36:05;;;;;;;;;;;;;;;-144.70;100.00;64190.91;4786130;29;19925;-45
2023/03/11 03:38:31;;;;;;;;;;;;;;;-144.70;100.00;64190.91;4786560;30;19925;-49
2023/03/11 03:40:57;;;;;;;;;;;;;;;-144.70;100.00;64190.91;4786268;30;19982;-45
2023/03/11 03:43:22;;;;;;;;;;;;;;;-144.70;100.00;64190.91;4786389;30;20004;-47
2023/03/11 03:45:55;;;;;;;;;;;;;;;-144.70;100.00;64190.91;4786405;30;19987;-45
2023/03/11 03:48:21;;;;;;;;;;;;;;;-144.70;100.00;64190.91;4786720;30;19921;-48
2023/03/11 03:50:47;;;;;;;;;;;;;;;-144.70;100.00;64190.91;4786181;30;20291;-45
2023/03/11 03:53:13;;;;;;;;;;;;;;;-144.70;100.00;64190.91;4772115;30;20452;-49
2023/03/11 03:55:39;;;;;;;;;;;;;;;-144.70;100.00;64190.91;4768432;30;19971;-48
2023/03/11 03:58:04;;;;;;;;;;;;;;;-144.70;100.00;64190.91;4768349;30;20385;-49
2023/03/11 04:00:30;;;;;;;;;;;;;;;-144.70;100.00;64190.91;4768463;30;19934;-48
2023/03/11 04:02:56;;;;;;;;;;;;;;;-144.70;100.00;64190.91;4770862;30;19922;-45
2023/03/11 04:05:25;;;;;;;;;;;;;;;-144.70;100.00;64190.91;4772689;30;20346;-46
2023/03/11 04:07:51;;;;;;;;;;;;;;;-144.70;100.00;64190.91;4789570;30;20004;-44
2023/03/11 04:10:17;;;;;;;;;;;;;;;-144.70;100.00;64190.91;4785172;30;19929;-45
2023/03/11 04:12:43;;;;;;;;;;;;;;;-144.70;100.00;64190.91;4782896;30;20028;-47
2023/03/11 04:15:09;;;;;;;;;;;;;;;-144.70;100.00;64190.91;4771447;30;20297;-48
2023/03/11 04:17:35;;;;;;;;;;;;;;;-144.70;100.00;64190.91;4771330;30;20305;-46
2023/03/11 04:20:01;;;;;;;;;;;;;;;-144.70;100.00;64190.91;4771261;30;19924;-46
2023/03/11 04:22:27;;;;;;;;;;;;;;;-144.70;100.00;64190.91;4771333;30;19929;-45
2023/03/11 04:24:53;;;;;;;;;;;;;;;-144.70;100.00;64190.91;4770981;30;19964;-47
2023/03/11 04:27:19;;;;;;;;;;;;;;;-144.70;100.00;64190.91;4753459;30;20266;-48
2023/03/11 04:29:44;;;;;;;;;;;;;;;-144.70;100.00;64190.91;4754113;30;19990;-46
2023/03/11 04:32:10;;;;;;;;;;;;;;;-144.70;100.00;64190.91;4771149;30;19967;-46
2023/03/11 04:34:36;;;;;;;;;;;;;;;-144.70;100.00;64190.91;4771443;30;19924;-48
2023/03/11 04:37:02;;;;;;;;;;;;;;;-144.70;100.00;64190.91;4786517;30;20015;-46
2023/03/11 04:39:28;;;;;;;;;;;;;;;-144.70;100.00;64190.91;4789051;30;19922;-48
2023/03/11 04:41:54;;;;;;;;;;;;;;;-144.70;100.00;64190.91;4788643;30;19929;-45
2023/03/11 04:44:20;;;;;;;;;;;;;;;-144.70;100.00;64190.91;4790195;30;19936;-46
2023/03/11 04:46:45;;;;;;;;;;;;;;;-144.70;100.00;64190.91;4785185;30;19928;-46
2023/03/11 04:49:11;;;;;;;;;;;;;;;-144.70;100.00;64190.91;4771704;30;19917;-48
2023/03/11 04:51:37;;;;;;;;;;;;;;;-144.70;100.00;64190.91;4770737;30;19922;-49
2023/03/11 04:54:03;;;;;;;;;;;;;;;-144.70;100.00;64190.91;4770680;30;20420;-47
2023/03/11 04:56:29;;;;;;;;;;;;;;;-144.70;100.00;64190.91;4774732;30;19921;-45
2023/03/11 04:58:55;;;;;;;;;;;;;;;-144.70;100.00;64190.91;4777475;30;19922;-49
2023/03/11 05:01:21;;;;;;;;;;;;;;;-144.70;100.00;64190.91;4757019;30;20017;-45
2023/03/11 05:03:47;;;;;;;;;;;;;;;-144.70;100.00;64190.91;4788446;30;19924;-46
2023/03/11 05:06:12;;;;;;;;;;;;;;;-144.70;100.00;64190.91;4779798;30;20014;-45
2023/03/11 05:08:39;;;;;;;;;;;;;;;-144.70;100.00;64190.91;4770524;30;19918;-45
2023/03/11 05:11:05;;;;;;;;;;;;;;;-144.70;100.00;64190.91;4769790;30;19926;-49
2023/03/11 05:13:31;;;;;;;;;;;;;;;-144.70;100.00;64190.91;4786550;29;19995;-46
2023/03/11 05:15:57;;;;;;;;;;;;;;;-144.70;100.00;64190.91;4784016;30;20377;-46
2023/03/11 05:18:23;;;;;;;;;;;;;;;-144.70;100.00;64190.91;4770511;30;19918;-46
2023/03/11 05:20:49;;;;;;;;;;;;;;;-144.70;100.00;64190.91;4762530;30;19928;-45
2023/03/11 05:23:15;;;;;;;;;;;;;;;-144.70;100.00;64190.91;4752147;30;20002;-48
2023/03/11 05:25:40;;;;;;;;;;;;;;;-144.70;100.00;64190.91;4752506;30;19918;-48
2023/03/11 05:28:06;;;;;;;;;;;;;;;-144.70;100.00;64190.91;4756800;30;19925;-45
2023/03/11 05:30:32;;;;;;;;;;;;;;;-144.70;100.00;64190.91;4770194;30;19921;-46
2023/03/11 05:32:58;;;;;;;;;;;;;;;-144.70;100.00;64190.91;4770438;30;20144;-46
2023/03/11 05:35:24;;;;;;;;;;;;;;;-144.70;100.00;64190.91;4770364;30;19926;-45
2023/03/11 05:37:51;;;;;;;;;;;;;;;-144.70;100.00;64190.91;4763938;30;19918;-46
2023/03/11 05:40:17;;;;;;;;;;;;;;;-144.70;100.00;64190.91;4752272;30;20346;-46
2023/03/11 05:42:43;;;;;;;;;;;;;;;-144.70;100.00;64190.91;4752512;30;20361;-48
2023/03/11 05:45:09;;;;;;;;;;;;;;;-144.70;100.00;64190.91;4752686;30;19925;-48
2023/03/11 05:47:35;;;;;;;;;;;;;;;-144.70;100.00;64190.91;4752546;30;20383;-48
2023/03/11 05:50:01;;;;;;;;;;;;;;;-144.70;100.00;64190.91;4752118;30;19918;-47
2023/03/11 05:52:27;;;;;;;;;;;;;;;-144.70;100.00;64190.91;4752268;30;20298;-46
2023/03/11 05:54:53;;;;;;;;;;;;;;;-144.70;100.00;64190.91;4752347;30;19968;-47
2023/03/11 05:57:18;;;;;;;;;;;;;;;-144.70;100.00;64190.91;4752413;30;20282;-44
2023/03/11 05:59:44;;;;;;;;;;;;;;;-144.70;100.00;64190.91;4752057;30;19922;-45
2023/03/11 06:02:10;;;;;;;;;;;;;;;-144.70;100.00;64190.91;4751910;30;19993;-44
2023/03/11 06:04:36;;;;;;;;;;;;;;;-144.70;100.00;64190.91;4755949;30;19918;-45
2023/03/11 06:07:03;;;;;;;;;;;;;;;-144.70;100.00;64190.91;4769719;30;19917;-46
2023/03/11 06:09:29;;;;;;;;;;;;;;;-144.70;100.00;64190.91;4769816;30;19964;-45
2023/03/11 06:11:54;;;;;;;;;;;;;;;-144.70;100.00;64190.91;4778662;30;20353;-49
2023/03/11 06:14:20;;;;;;;;;;;;;;;-144.70;100.00;64190.91;4774715;30;19922;-48
2023/03/11 06:16:46;;;;;;;;;;;;;;;-144.70;100.00;64190.91;4767341;30;19929;-48
2023/03/11 06:19:12;;;;;;;;;;;;;;;-144.70;100.00;64190.91;4774562;30;19977;-45
2023/03/11 06:21:38;;;;;;;;;;;;;;;-144.70;100.00;64190.91;4770145;30;20411;-47
2023/03/11 06:24:04;;;;;;;;;;;;;;;-144.70;100.00;64190.91;4779068;30;20603;-45
2023/03/11 06:26:30;;;;;;;;;;;;;;;-144.70;100.00;64190.91;4768975;30;19922;-45
2023/03/11 06:28:56;;;;;;;;;;;;;;;-144.70;100.00;64190.91;4769254;30;20381;-47
2023/03/11 06:31:26;;;;;;;;;;;;;;;-144.70;100.00;64190.91;4769155;30;19918;-45
2023/03/11 06:33:54;;;;;;;;;;;;;;;-144.70;100.00;64190.91;4769276;30;19947;-46
2023/03/11 06:36:21;;;;;;;;;;;;;;;-144.70;100.00;64190.91;4779421;30;20377;-46
2023/03/11 06:38:48;;;;;;;;;;;;;;;-144.70;100.00;64190.91;4786997;30;19918;-46
2023/03/11 06:41:14;;;;;;;;;;;;;;;-144.70;100.00;64190.91;4772465;30;19961;-46
2023/03/11 06:43:39;;;;;;;;;;;;;;;-144.70;100.00;64190.91;4769097;30;19959;-48
2023/03/11 06:46:09;;;;;;;;;;;;;;;-144.70;100.00;64190.91;4769236;30;19918;-49
2023/03/11 06:48:35;;;;;;;;;;;;;;;-144.70;100.00;64190.91;4751288;30;20404;-49
2023/03/11 06:51:01;;;;;;;;;;;;;;;-144.70;100.00;64190.91;4751159;30;20004;-48
2023/03/11 06:53:27;;;;;;;;;;;;;;;-144.70;100.00;64190.91;4751309;30;19961;-47
2023/03/11 06:56:00;;;;;;;;;;;;;;;-144.70;100.00;64190.91;4751287;30;19957;-47
2023/03/11 06:58:26;;;;;;;;;;;;;;;-144.70;100.00;64190.91;4751222;30;19918;-45
2023/03/11 07:00:52;;;;;;;;;;;;;;;-144.70;100.00;64190.91;4750963;30;19941;-45
2023/03/11 07:03:18;;;;;;;;;;;;;;;-144.70;100.00;64190.91;4751294;30;20016;-48
2023/03/11 07:05:44;;;;;;;;;;;;;;;-144.70;100.00;64190.91;4751305;30;19918;-49
2023/03/11 07:08:10;;;;;;;;;;;;;;;-144.70;100.00;64190.91;4751436;30;19928;-48
2023/03/11 07:10:36;;;;;;;;;;;;;;;-144.70;100.00;64190.91;4751055;30;19918;-48
2023/03/11 07:13:02;;;;;;;;;;;;;;;-144.70;100.00;64190.91;4751285;30;20305;-48
2023/03/11 07:15:28;;;;;;;;;;;;;;;-144.70;100.00;64190.91;4750976;30;19931;-49
2023/03/11 07:17:53;;;;;;;;;;;;;;;-144.70;100.00;64190.91;4766589;30;19918;-49
2023/03/11 07:20:19;;;;;;;;;;;;;;;-144.70;100.00;64190.91;4768567;30;20005;-48
2023/03/11 07:22:45;;;;;;;;;;;;;;;-144.70;100.00;64190.91;4768847;30;19971;-49
2023/03/11 07:25:11;;;;;;;;;;;;;;;-144.70;100.00;64190.91;4768494;30;19926;-48
2023/03/11 07:27:37;;;;;;;;;;;;;;;-144.70;100.00;64190.91;4768883;30;19971;-48
2023/03/11 07:30:03;;;;;;;;;;;;;;;-144.70;100.00;64190.91;4768412;30;20532;-47
2023/03/11 07:32:29;;;;;;;;;;;;;;;-144.70;100.00;64190.91;4768841;30;20351;-48
2023/03/11 07:34:54;;;;;;;;;;;;;;;-144.70;100.00;64190.91;4768179;30;19921;-49
2023/03/11 07:37:20;;;;;;;;;;;;;;;-144.70;100.00;64190.91;4757771;30;20012;-46
2023/03/11 07:39:46;;;;;;;;;;;;;;;-144.70;100.00;64190.91;4771325;30;19969;-46
2023/03/11 07:42:12;;;;;;;;;;;;;;;-144.70;100.00;64190.91;4771530;30;19967;-45
2023/03/11 07:44:38;;;;;;;;;;;;;;;-144.70;100.00;64190.91;4759195;30;19925;-46
2023/03/11 07:47:04;;;;;;;;;;;;;;;-144.70;100.00;64190.91;4772202;30;19997;-46
2023/03/11 07:49:30;;;;;;;;;;;;;;;-144.70;100.00;64190.91;4772089;30;20339;-48
2023/03/11 07:51:56;;;;;;;;;;;;;;;-144.70;100.00;64190.91;4772148;30;19918;-48
2023/03/11 07:54:22;;;;;;;;;;;;;;;-144.70;100.00;64190.91;4771246;30;19921;-49
2023/03/11 07:56:48;;;;;;;;;;;;;;;-144.70;100.00;64190.91;4758967;30;19922;-48
2023/03/11 07:59:14;;;;;;;;;;;;;;;-144.70;100.00;64190.91;4780104;30;19917;-45
2023/03/11 08:01:40;;;;;;;;;;;;;;;-144.70;100.00;64190.91;4773765;30;19961;-48
2023/03/11 08:04:07;;;;;;;;;;;;;;;-144.70;100.00;64190.91;4768311;30;19940;-46
2023/03/11 08:06:34;;;;;;;;;;;;;;;-144.70;100.00;64190.91;4753955;30;19922;-48
2023/03/11 08:09:00;;;;;;;;;;;;;;;-144.70;100.00;64190.91;4754108;30;19918;-46
2023/03/11 08:11:26;;;;;;;;;;;;;;;-144.70;100.00;64190.91;4753599;30;19941;-49
2023/03/11 08:13:53;;;;;;;;;;;;;;;-144.70;100.00;64190.91;4753713;30;20287;-48
2023/03/11 08:16:20;;;;;;;;;;;;;;;-144.70;100.00;64190.91;4757370;30;20285;-48
2023/03/11 08:18:46;;;;;;;;;;;;;;;-144.70;100.00;64190.91;4771588;30;19920;-46
2023/03/11 08:21:13;;;;;;;;;;;;;;;-144.70;100.00;64190.91;4771170;30;19917;-45
2023/03/11 08:23:39;;;;;;;;;;;;;;;-144.70;100.00;64190.91;4771505;30;19918;-45
2023/03/11 08:26:06;;;;;;;;;;;;;;;-144.70;100.00;64190.91;4771544;30;20393;-49
2023/03/11 08:28:32;;;;;;;;;;;;;;;-144.70;100.00;64190.91;4771401;30;20014;-49
2023/03/11 08:30:58;;;;;;;;;;;;;;;-144.70;100.00;64190.91;4771228;30;19922;-47
2023/03/11 08:33:24;;;;;;;;;;;;;;;-144.70;100.00;64190.91;4771404;30;20361;-47
2023/03/11 08:35:50;;;;;;;;;;;;;;;-144.70;100.00;64190.91;4777468;30;19953;-46
2023/03/11 08:38:16;;;;;;;;;;;;;;;-144.70;100.00;64190.91;4783426;30;19996;-46
2023/03/11 08:40:41;;;;;;;;;;;;;;;-144.70;100.00;64190.91;4770808;30;20289;-47
2023/03/11 08:43:08;;;;;;;;;;;;;;;-144.70;100.00;64190.91;4770416;30;20370;-48
2023/03/11 08:45:34;;;;;;;;;;;;;;;-144.70;100.00;64190.91;4770516;30;20369;-48
2023/03/11 08:47:59;;;;;;;;;;;;;;;-144.70;100.00;64190.91;4770073;30;20429;-48
2023/03/11 08:50:25;;;;;;;;;;;;;;;-144.70;100.00;64190.91;4770453;30;19918;-46
2023/03/11 08:52:51;;;;;;;;;;;;;;;-144.70;100.00;64190.91;4770764;30;20308;-48
2023/03/11 08:55:23;;;;;;;;;;;;;;;-144.70;100.00;64190.91;4784427;30;19917;-47
2023/03/11 08:57:50;;;;;;;;;;;;;;;-144.70;100.00;64190.91;4786319;30;19971;-48
2023/03/11 09:00:16;;;;;;;;;;;;;;;-144.70;100.00;64190.91;4770230;30;20022;-45
2023/03/11 09:02:42;;;;;;;;;;;;;;;-144.70;100.00;64190.91;4770870;30;20047;-47
2023/03/11 09:05:08;;;;;;;;;;;;;;;-144.70;100.00;64190.91;4770834;30;20424;-44
2023/03/11 09:07:34;;;;;;;;;;;;;;;-144.70;100.00;64190.91;4770763;30;19917;-48
2023/03/11 09:10:00;;;;;;;;;;;;;;;-144.70;100.00;64190.91;4772831;30;20343;-45
2023/03/11 09:12:26;;;;;;;;;;;;;;;-144.70;100.00;64190.91;4788433;30;19924;-48
2023/03/11 09:14:53;;;;;;;;;;;;;;;-144.70;100.00;64190.91;4768694;30;19968;-46
2023/03/11 09:17:19;;;;;;;;;;;;;;;-144.70;100.00;64190.91;4752854;30;19925;-45
2023/03/11 09:19:45;;;;;;;;;;;;;;;-144.70;100.00;64190.91;4752674;30;19918;-45
2023/03/11 09:22:11;;;;;;;;;;;;;;;-144.70;100.00;64190.91;4752459;30;20488;-47
2023/03/11 09:24:36;;;;;;;;;;;;;;;-144.70;100.00;64190.91;4752755;30;19968;-46
2023/03/11 09:27:02;;;;;;;;;;;;;;;-144.70;100.00;64190.91;4768928;24;19934;-45
2023/03/11 09:29:28;;;;;;;;;;;;;;;-144.70;100.00;64190.91;4787574;30;19921;-45
2023/03/11 09:31:54;;;;;;;;;;;;;;;-144.70;100.00;64190.91;4787568;30;19979;-45
2023/03/11 09:34:20;;;;;;;;;;;;;;;-144.70;100.00;64190.91;4786787;30;20852;-47
2023/03/11 09:36:46;;;;;;;;;;;;;;;-144.70;100.00;64190.91;4787688;30;20003;-48
2023/03/11 09:39:12;;;;;;;;;;;;;;;-144.70;100.00;64190.91;4787710;30;19928;-47
2023/03/11 09:41:44;;;;;;;;;;;;;;;-144.70;100.00;64190.91;4787386;30;20300;-45
2023/03/11 09:44:15;;;;;;;;;;;;;;;-144.70;100.00;64190.91;4787634;30;20004;-48
2023/03/11 09:47:03;;;;;;;;;;;;;;;-144.70;100.00;64190.91;4787627;30;19974;-45
2023/03/11 09:49:41;;;;;;;;;;;;;;;-144.70;100.00;64190.91;4787913;30;19943;-46
2023/03/11 09:52:11;;;;;;;;;;;;;;;-144.70;100.00;64190.91;4787395;30;20372;-46
2023/03/11 09:54:39;;;;;;;;;;;;;;;-144.70;100.00;64190.91;4787737;30;19922;-48
2023/03/11 09:57:08;;;;;;;;;;;;;;;-144.70;100.00;64190.91;4787370;30;20400;-44
2023/03/11 09:59:36;;;;;;;;;;;;;;;-144.70;100.00;64190.91;4786407;29;20066;-44
2023/03/11 10:02:02;;;;;;;;;;;;;;;-144.70;100.00;64190.91;4768808;30;19921;-48
2023/03/11 10:04:41;;;;;;;;;;;;;;;-144.70;100.00;64190.91;4777923;30;20274;-49
2023/03/11 10:07:20;;;;;;;;;;;;;;;-144.70;100.00;64190.91;4763559;30;20012;-49
2023/03/11 10:09:53;;;;;;;;;;;;;;;-144.70;100.00;64190.91;4756279;30;20073;-44
2023/03/11 10:12:27;;;;;;;;;;;;;;;-144.70;100.00;64190.91;4786704;30;19924;-44
2023/03/11 10:15:15;;;;;;;;;;;;;;;-144.70;100.00;64190.91;4756012;30;19922;-45
2023/03/11 10:17:53;;;;;;;;;;;;;;;-144.70;100.00;64190.91;4774758;30;19930;-47
2023/03/11 10:20:34;;;;;;;;;;;;;;;-144.70;100.00;64190.91;4780073;30;19921;-46
2023/03/11 10:23:06;;;;;;;;;;;;;;;-144.70;100.00;64190.91;4774243;30;19931;-48
2023/03/11 10:25:54;;;;;;;;;;;;;;;-144.70;100.00;64190.91;4787229;30;19993;-49
2023/03/11 10:28:21;;;;;;;;;;;;;;;-144.70;100.00;64190.91;4780015;30;19922;-46
2023/03/11 10:30:51;;;;;;;;;;;;;;;-144.70;100.00;64190.91;4770137;30;20019;-45
2023/03/11 10:33:17;;;;;;;;;;;;;;;-144.70;100.00;64190.91;4779436;30;19972;-45
2023/03/11 10:35:45;;;;;;;;;;;;;;;-144.70;100.00;64190.91;4769779;30;19976;-46
2023/03/11 10:38:25;;;;;;;;;;;;;;;-144.70;100.00;64190.91;4755867;30;19928;-48
2023/03/11 10:40:54;;;;;;;;;;;;;;;-144.70;100.00;64190.91;4753200;30;19928;-45
2023/03/11 10:43:20;;;;;;;;;;;;;;;-144.70;100.00;64190.91;4769307;30;20362;-48
2023/03/11 10:45:48;;;;;;;;;;;;;;;-144.70;100.00;64190.91;4769300;30;20008;-46
2023/03/11 10:48:15;;;;;;;;;;;;;;;-144.70;100.00;64190.91;4769000;30;19922;-46
2023/03/11 10:51:01;;;;;;;;;;;;;;;-144.70;100.00;64190.91;4768770;30;20389;-46
2023/03/11 10:53:27;;;;;;;;;;;;;;;-144.70;100.00;64190.91;4769040;30;19922;-45
2023/03/11 10:55:54;;;;;;;;;;;;;;;-144.70;100.00;64190.91;4769054;30;19918;-49
2023/03/11 10:58:22;;;;;;;;;;;;;;;-144.70;100.00;64190.91;4769035;30;19922;-48
2023/03/11 11:01:20;;;;;;;;;;;;;;;-144.70;100.00;64190.91;4768616;30;20059;-47
2023/03/11 11:03:48;;;;;;;;;;;;;;;-144.70;100.00;64190.91;4748398;30;20301;-47
2023/03/11 11:06:22;;;;;;;;;;;;;;;-144.70;100.00;64190.91;4769101;30;19921;-48
2023/03/11 11:08:48;;;;;;;;;;;;;;;-144.70;100.00;64190.91;4769144;30;19975;-46
2023/03/11 11:11:23;;;;;;;;;;;;;;;-144.70;100.00;64190.91;4769852;30;19918;-45
2023/03/11 11:13:56;;;;;;;;;;;;;;;-144.70;100.00;64190.91;4770200;30;19967;-46
2023/03/11 11:16:22;;;;;;;;;;;;;;;-144.70;100.00;64190.91;4755045;30;19925;-46
2023/03/11 11:19:01;;;;;;;;;;;;;;;-144.70;100.00;64190.91;4754584;30;19929;-45
2023/03/11 11:21:33;;;;;;;;;;;;;;;-144.70;100.00;64190.91;4754715;30;19953;-48
2023/03/11 11:24:17;;;;;;;;;;;;;;;-144.70;100.00;64190.91;4754745;30;19961;-46
2023/03/11 11:27:02;;;;;;;;;;;;;;;-144.70;100.00;64190.91;4769510;30;19921;-45
2023/03/11 11:29:28;;;;;;;;;;;;;;;-144.70;100.00;64190.91;4790203;30;19917;-44
2023/03/11 11:32:09;;;;;;;;;;;;;;;-144.70;100.00;64190.91;4778593;30;19918;-48
2023/03/11 11:34:35;;;;;;;;;;;;;;;-144.70;100.00;64190.91;4771747;30;19981;-47
2023/03/11 11:37:03;;;;;;;;;;;;;;;-144.70;100.00;64190.91;4772288;30;19921;-45
2023/03/11 11:39:36;;;;;;;;;;;;;;;-144.70;100.00;64190.91;4771673;30;19925;-47
2023/03/11 11:42:02;;;;;;;;;;;;;;;-144.70;100.00;64190.91;4771859;30;19925;-45
2023/03/11 11:44:32;;;;;;;;;;;;;;;-144.70;100.00;64190.91;4781966;30;19924;-47
2023/03/11 11:47:03;;;;;;;;;;;;;;;-144.70;100.00;64190.91;4790035;30;20309;-46
2023/03/11 11:49:30;;;;;;;;;;;;;;;-144.70;100.00;64190.91;4772680;30;19925;-46
2023/03/11 11:51:59;;;;;;;;;;;;;;;-144.70;100.00;64190.91;4771839;30;20429;-45
2023/03/11 11:54:37;;;;;;;;;;;;;;;-144.70;100.00;64190.91;4771974;30;19917;-47
2023/03/11 11:57:14;;;;;;;;;;;;;;;-144.70;100.00;64190.91;4771962;30;20020;-48
2023/03/11 11:59:40;;;;;;;;;;;;;;;-144.70;100.00;64190.91;4773444;30;20025;-46
2023/03/11 12:02:18;;;;;;;;;;;;;;;-144.70;100.00;64190.91;4789578;30;19924;-49
2023/03/11 12:04:53;;;;;;;;;;;;;;;-144.70;100.00;64190.91;4789691;30;19917;-47
2023/03/11 12:07:28;;;;;;;;;;;;;;;-144.70;100.00;64190.91;4789729;30;19917;-45
2023/03/11 12:10:00;;;;;;;;;;;;;;;-144.70;100.00;64190.91;4789647;30;20391;-48
2023/03/11 12:12:36;;;;;;;;;;;;;;;-144.70;100.00;64190.91;4789702;30;19917;-48
2023/03/11 12:15:25;;;;;;;;;;;;;;;-144.70;100.00;64190.91;4789432;30;19921;-48
2023/03/11 12:17:53;;;;;;;;;;;;;;;-144.70;100.00;64190.91;4789876;30;20300;-46
2023/03/11 12:20:19;;;;;;;;;;;;;;;-144.70;100.00;64190.91;4789204;30;19918;-48